This is the latest recevied weather packets stored in our database for station/object K3MV-13. If no packets are shown the sender has not sent any weather packets the latest 1 day(s).
| Time | Temp. | Humidity | Pressure | Rain* | Wind** | Luminosity | Snow |
|---|---|---|---|---|---|---|---|
| 1778078574 | 13.89° C | 94% | 1007.3 hPa | 0 mm | - | 51 W/m² | - |
| 1778076761 | 13.89° C | 94% | 1007.2 hPa | 0 mm | - | 89 W/m² | - |
| 1778075548 | 13.89° C | 93% | 1007.4 hPa | 0 mm | - | 49 W/m² | - |
| 1778075245 | 13.89° C | 94% | 1007.2 hPa | 0 mm | - | 71 W/m² | - |
| 1778074941 | 13.89° C | 94% | 1007.2 hPa | 0 mm | - | 96 W/m² | - |
| 1778073729 | 13.33° C | 94% | 1007.4 hPa | 0 mm | - | 46 W/m² | - |
| 1778073427 | 13.33° C | 94% | 1007.6 hPa | 0 mm | - | 45 W/m² | - |
| 1778072517 | 13.33° C | 93% | 1007.5 hPa | 1.78 mm | - | 70 W/m² | - |
| 1778072215 | 13.33° C | 93% | 1007.6 hPa | 1.27 mm | - | 68 W/m² | - |
| 1778071308 | 13.33° C | 92% | 1007.8 hPa | 1.78 mm | - | 29 W/m² | - |
| 1778071005 | 13.33° C | 92% | 1007.9 hPa | 0 mm | - | 35 W/m² | - |
| 1778070704 | 13.33° C | 92% | 1007.8 hPa | 0 mm | - | 51 W/m² | - |
| 1778070098 | 12.78° C | 93% | 1007.6 hPa | 0 mm | - | 64 W/m² | - |
| 1778068283 | 12.78° C | 93% | 1007.8 hPa | 0 mm | - | 42 W/m² | - |
| 1778067980 | 12.78° C | 93% | 1007.5 hPa | 0 mm | - | 54 W/m² | - |
| 1778067678 | 12.78° C | 93% | 1007.6 hPa | 0 mm | - | 55 W/m² | - |
| 1778067376 | 12.78° C | 93% | 1007.5 hPa | 0 mm | - | 79 W/m² | - |
| 1778067073 | 12.22° C | 93% | 1007.6 hPa | 0 mm | - | 62 W/m² | - |
| 1778065256 | 12.22° C | 92% | 1007.8 hPa | 1.27 mm | - | 4 W/m² | - |
| 1778064650 | 12.22° C | 91% | 1008 hPa | 1.78 mm | - | 9 W/m² | - |
| 1778064348 | 12.22° C | 91% | 1007.9 hPa | 1.78 mm | - | 6 W/m² | - |
| 1778064045 | 12.22° C | 90% | 1007.8 hPa | 1.27 mm | - | 3 W/m² | - |
| 1778062531 | 12.22° C | 88% | 1008.2 hPa | 0 mm | - | 1 W/m² | - |
| 1778062228 | 12.22° C | 88% | 1008.2 hPa | 1.27 mm | - | 1 W/m² | - |
| 1778061323 | 12.78° C | 85% | 1008.3 hPa | 1.78 mm | - | 0 W/m² | - |
* Rain latest hour (hover to see other rain measurements)
** Current wind speed in m/s (hover to see current wind gust speed)